Time;durP1;ratioP1;P1;durP2;ratioP2;P2;SDS_P1;SDS_P2;PMS_P1;PMS_P2;Temp;Humidity;BMP_temperature;BMP_pressure;BME280_temperature;BME280_humidity;BME280_pressure;Samples;Min_cycle;Max_cycle;Signal;HPM_P1;HPM_P2
2024/04/17 00:01:35;;;;;;;0.75;0.75;;;8.10;73.70;;;;;;5402236;26;20003;-63
2024/04/17 00:04:01;;;;;;;1.08;0.90;;;8.10;73.70;;;;;;5405563;26;20076;-62
2024/04/17 00:06:26;;;;;;;0.70;0.70;;;8.20;74.00;;;;;;5403172;26;20003;-61
2024/04/17 00:08:52;;;;;;;0.73;0.73;;;8.10;73.80;;;;;;5401220;26;20002;-63
2024/04/17 00:11:17;;;;;;;0.50;0.50;;;8.10;74.00;;;;;;5400607;26;20449;-61
2024/04/17 00:13:43;;;;;;;1.80;0.70;;;8.10;74.00;;;;;;5402470;26;20031;-63
2024/04/17 00:16:08;;;;;;;1.40;0.73;;;8.20;74.00;;;;;;5404024;26;20013;-62
2024/04/17 00:18:34;;;;;;;1.23;0.80;;;8.20;74.00;;;;;;5414316;26;20022;-62
2024/04/17 00:21:00;;;;;;;0.85;0.80;;;8.20;74.20;;;;;;5402880;26;20030;-62
2024/04/17 00:23:26;;;;;;;0.93;0.80;;;8.20;74.20;;;;;;5398703;26;20031;-63
2024/04/17 00:25:52;;;;;;;0.65;0.65;;;8.10;74.00;;;;;;5395789;26;19999;-63
2024/04/17 00:28:17;;;;;;;0.80;0.80;;;8.20;74.30;;;;;;5411039;26;20444;-63
2024/04/17 00:30:45;;;;;;;0.77;0.60;;;8.20;74.20;;;;;;5397202;26;20008;-63
2024/04/17 00:33:11;;;;;;;0.60;0.60;;;8.20;74.20;;;;;;5408127;26;20050;-63
2024/04/17 00:35:36;;;;;;;0.70;0.70;;;8.20;74.20;;;;;;5403381;26;20494;-62
2024/04/17 00:38:02;;;;;;;1.00;0.90;;;8.20;74.40;;;;;;5406142;26;20462;-63
2024/04/17 00:40:31;;;;;;;1.08;0.60;;;8.20;74.50;;;;;;5394098;26;20068;-63
2024/04/17 00:43:00;;;;;;;0.90;0.70;;;8.10;74.60;;;;;;5410291;26;20007;-61
2024/04/17 00:45:32;;;;;;;1.95;0.60;;;8.10;74.60;;;;;;5394588;26;20003;-62
2024/04/17 00:47:59;;;;;;;1.42;0.68;;;8.10;74.40;;;;;;5409576;26;19994;-63
2024/04/17 00:50:25;;;;;;;2.70;0.70;;;8.10;74.20;;;;;;5411806;26;20455;-64
2024/04/17 00:52:52;;;;;;;0.60;0.57;;;8.10;74.40;;;;;;5404447;26;20010;-61
2024/04/17 00:55:18;;;;;;;0.73;0.63;;;8.10;74.10;;;;;;5392391;26;19991;-63
2024/04/17 00:57:44;;;;;;;0.98;0.70;;;8.10;75.10;;;;;;5396550;26;20023;-63
2024/04/17 01:00:11;;;;;;;1.48;0.75;;;8.10;74.20;;;;;;5395033;26;19991;-63
2024/04/17 01:02:36;;;;;;;0.75;0.50;;;8.10;74.30;;;;;;5399417;26;20004;-61
2024/04/17 01:05:02;;;;;;;0.60;0.60;;;8.10;74.10;;;;;;5398608;26;20336;-63
2024/04/17 01:07:27;;;;;;;0.65;0.57;;;8.10;74.10;;;;;;5409415;26;19994;-63
2024/04/17 01:09:54;;;;;;;0.50;0.50;;;8.10;74.10;;;;;;5402843;26;20483;-62
2024/04/17 01:12:20;;;;;;;0.60;0.60;;;8.10;74.20;;;;;;5392971;26;20023;-63
2024/04/17 01:14:45;;;;;;;0.52;0.52;;;8.10;74.30;;;;;;5404866;26;20004;-63
2024/04/17 01:17:11;;;;;;;0.80;0.60;;;8.10;74.40;;;;;;5409731;26;19995;-63
2024/04/17 01:19:37;;;;;;;1.08;0.52;;;8.10;74.40;;;;;;5419827;26;19999;-63
2024/04/17 01:22:03;;;;;;;0.60;0.60;;;8.00;74.50;;;;;;5404299;26;20341;-63
2024/04/17 01:24:28;;;;;;;0.75;0.60;;;8.00;74.40;;;;;;5411691;26;19996;-63
2024/04/17 01:26:54;;;;;;;0.50;0.50;;;8.00;74.40;;;;;;5399715;26;20502;-62
2024/04/17 01:29:19;;;;;;;0.47;0.47;;;8.00;74.40;;;;;;5407165;26;20018;-62
2024/04/17 01:31:45;;;;;;;0.80;0.50;;;8.00;74.40;;;;;;5395201;26;20000;-63
2024/04/17 01:34:11;;;;;;;0.50;0.45;;;8.10;74.60;;;;;;5398235;26;20730;-62
2024/04/17 01:36:36;;;;;;;0.50;0.40;;;8.00;74.50;;;;;;5401578;26;19999;-63
2024/04/17 01:39:02;;;;;;;1.35;0.47;;;8.00;74.60;;;;;;5391210;26;20396;-61
2024/04/17 01:41:28;;;;;;;0.60;0.60;;;8.00;74.50;;;;;;5396859;26;19992;-63
2024/04/17 01:43:54;;;;;;;0.75;0.40;;;8.10;74.80;;;;;;5401751;26;20076;-62
2024/04/17 01:46:19;;;;;;;1.33;0.40;;;8.10;74.80;;;;;;5409813;26;20007;-63
2024/04/17 01:48:45;;;;;;;0.60;0.50;;;8.00;74.80;;;;;;5399516;26;20502;-62
2024/04/17 01:51:10;;;;;;;0.40;0.40;;;8.00;74.80;;;;;;5405148;26;20007;-63
2024/04/17 01:53:36;;;;;;;0.43;0.40;;;8.00;74.80;;;;;;5412051;26;19996;-64
2024/04/17 01:56:02;;;;;;;0.82;0.38;;;8.00;74.90;;;;;;5401633;26;19999;-63
2024/04/17 01:58:27;;;;;;;0.35;0.35;;;8.00;74.90;;;;;;5396368;26;20010;-62
2024/04/17 02:00:53;;;;;;;0.68;0.40;;;8.00;74.70;;;;;;5406720;26;20355;-63
2024/04/17 02:03:19;;;;;;;0.57;0.40;;;8.00;74.90;;;;;;5414275;26;20203;-63
2024/04/17 02:05:44;;;;;;;0.75;0.75;;;8.00;74.90;;;;;;5403080;26;20011;-62
2024/04/17 02:08:10;;;;;;;0.68;0.40;;;8.00;74.90;;;;;;5408295;26;20030;-64
2024/04/17 02:10:36;;;;;;;0.70;0.43;;;8.00;75.10;;;;;;5401916;26;20745;-63
2024/04/17 02:13:02;;;;;;;0.63;0.63;;;7.90;74.90;;;;;;5402946;26;20007;-63
2024/04/17 02:15:27;;;;;;;0.55;0.45;;;8.00;75.10;;;;;;5402515;26;20369;-63
2024/04/17 02:17:53;;;;;;;0.40;0.40;;;8.00;75.00;;;;;;5399397;26;20072;-62
2024/04/17 02:20:18;;;;;;;0.80;0.57;;;8.00;75.00;;;;;;5401584;26;19999;-63
2024/04/17 02:22:44;;;;;;;1.30;0.40;;;7.90;75.00;;;;;;5394146;26;20004;-63
2024/04/17 02:25:10;;;;;;;2.22;0.52;;;8.00;75.00;;;;;;5403672;26;19996;-62
2024/04/17 02:27:35;;;;;;;0.50;0.50;;;8.00;75.10;;;;;;5401984;26;20007;-64
2024/04/17 02:30:01;;;;;;;0.60;0.50;;;8.00;75.30;;;;;;5404236;26;20003;-63
2024/04/17 02:32:26;;;;;;;1.63;0.50;;;8.00;75.30;;;;;;5395672;26;20008;-64
2024/04/17 02:34:52;;;;;;;1.85;0.60;;;8.00;75.20;;;;;;5396607;26;20007;-63
2024/04/17 02:37:18;;;;;;;0.47;0.40;;;8.00;75.30;;;;;;5397214;26;19991;-63
2024/04/17 02:39:43;;;;;;;0.43;0.43;;;8.00;75.30;;;;;;5404886;26;19996;-63
2024/04/17 02:42:09;;;;;;;0.63;0.50;;;8.00;75.20;;;;;;5401952;26;19992;-63
2024/04/17 02:44:34;;;;;;;0.60;0.60;;;8.00;75.30;;;;;;5405580;26;19992;-63
2024/04/17 02:47:01;;;;;;;0.55;0.43;;;8.00;75.30;;;;;;5396120;26;20008;-63
2024/04/17 02:49:27;;;;;;;0.45;0.40;;;8.00;75.20;;;;;;5397199;26;20065;-61
2024/04/17 02:51:52;;;;;;;0.85;0.32;;;8.00;75.30;;;;;;5415927;26;19999;-63
2024/04/17 02:54:18;;;;;;;0.50;0.40;;;8.00;75.20;;;;;;5405548;26;19999;-62
2024/04/17 02:56:43;;;;;;;0.40;0.35;;;8.00;75.10;;;;;;5400965;26;19996;-64
2024/04/17 02:59:09;;;;;;;0.50;0.50;;;8.00;75.00;;;;;;5396145;26;19996;-62
2024/04/17 03:01:34;;;;;;;0.75;0.43;;;8.00;74.90;;;;;;5407638;26;20003;-63
2024/04/17 03:04:00;;;;;;;0.47;0.40;;;8.00;75.10;;;;;;5394193;26;20351;-63
2024/04/17 03:06:26;;;;;;;0.45;0.35;;;8.00;75.10;;;;;;5411527;26;20006;-63
2024/04/17 03:08:52;;;;;;;0.75;0.40;;;8.00;75.00;;;;;;5404843;26;20000;-62
2024/04/17 03:11:17;;;;;;;0.57;0.30;;;8.00;74.90;;;;;;5417421;26;20010;-62
2024/04/17 03:13:43;;;;;;;0.40;0.40;;;7.90;74.80;;;;;;5405133;26;20492;-63
2024/04/17 03:16:08;;;;;;;0.30;0.30;;;7.90;74.90;;;;;;5395608;26;19996;-62
2024/04/17 03:18:34;;;;;;;0.40;0.40;;;7.90;74.90;;;;;;5403005;26;20037;-63
2024/04/17 03:21:00;;;;;;;0.30;0.30;;;7.90;75.20;;;;;;5407904;26;20705;-63
2024/04/17 03:23:26;;;;;;;0.45;0.30;;;7.90;75.10;;;;;;5418096;26;20006;-63
2024/04/17 03:25:59;;;;;;;0.60;0.30;;;7.90;75.10;;;;;;5401578;26;20004;-62
2024/04/17 03:28:25;;;;;;;0.32;0.30;;;7.90;75.30;;;;;;5395543;26;20007;-63
2024/04/17 03:30:51;;;;;;;0.40;0.30;;;7.90;75.30;;;;;;5394801;26;20331;-63
2024/04/17 03:33:17;;;;;;;0.28;0.20;;;7.90;75.50;;;;;;5403229;26;20050;-63
2024/04/17 03:35:53;;;;;;;0.30;0.30;;;7.90;75.60;;;;;;5403200;26;20056;-63
2024/04/17 03:38:18;;;;;;;0.47;0.28;;;7.80;75.60;;;;;;5389643;26;20011;-64
2024/04/17 03:40:44;;;;;;;0.35;0.35;;;7.90;75.90;;;;;;5395005;26;20008;-62
2024/04/17 03:43:09;;;;;;;0.40;0.40;;;7.90;75.80;;;;;;5393708;26;20003;-63
2024/04/17 03:45:35;;;;;;;0.38;0.30;;;7.80;76.00;;;;;;5393119;26;20000;-62
2024/04/17 03:48:00;;;;;;;0.30;0.30;;;7.80;76.00;;;;;;5402087;26;20004;-63
2024/04/17 03:50:26;;;;;;;0.40;0.30;;;7.80;76.00;;;;;;5400394;26;20462;-64
2024/04/17 03:52:52;;;;;;;2.33;0.20;;;7.80;76.30;;;;;;5397658;26;20726;-63
2024/04/17 03:55:17;;;;;;;0.32;0.30;;;7.80;75.90;;;;;;5391929;26;19995;-63
2024/04/17 03:57:43;;;;;;;0.22;0.22;;;7.80;76.10;;;;;;5396775;26;20035;-63
2024/04/17 04:00:09;;;;;;;0.82;0.40;;;7.80;76.00;;;;;;5391194;26;20471;-63
2024/04/17 04:02:34;;;;;;;0.85;0.30;;;7.70;76.30;;;;;;5394326;26;20000;-63
2024/04/17 04:05:00;;;;;;;0.50;0.40;;;7.70;76.10;;;;;;5378357;26;20012;-63
2024/04/17 04:07:26;;;;;;;0.55;0.30;;;7.70;76.20;;;;;;5382868;26;20328;-63
2024/04/17 04:09:51;;;;;;;0.30;0.30;;;7.70;76.10;;;;;;5395857;26;20001;-63
2024/04/17 04:12:17;;;;;;;0.40;0.40;;;7.70;76.10;;;;;;5395200;26;20008;-63
2024/04/17 04:14:42;;;;;;;3.10;1.00;;;7.70;76.90;;;;;;5395443;26;20028;-63
2024/04/17 04:17:08;;;;;;;0.30;0.30;;;7.80;76.00;;;;;;5397755;26;20010;-62
2024/04/17 04:19:34;;;;;;;0.63;0.32;;;7.70;76.00;;;;;;5394853;26;20397;-62
2024/04/17 04:21:59;;;;;;;0.50;0.50;;;7.70;75.80;;;;;;5392570;26;20000;-62
2024/04/17 04:24:25;;;;;;;0.75;0.50;;;7.80;76.70;;;;;;5393347;26;20017;-63
2024/04/17 04:26:50;;;;;;;0.40;0.40;;;7.80;76.10;;;;;;5407633;26;20002;-63
2024/04/17 04:29:16;;;;;;;0.65;0.40;;;7.80;76.00;;;;;;5409734;26;20039;-63
2024/04/17 04:31:41;;;;;;;0.75;0.50;;;7.70;76.00;;;;;;5418177;26;20003;-63
2024/04/17 04:34:07;;;;;;;1.35;0.60;;;7.80;76.10;;;;;;5416957;26;20463;-63
2024/04/17 04:36:32;;;;;;;0.50;0.50;;;7.70;76.00;;;;;;5405348;26;20022;-63
2024/04/17 04:38:58;;;;;;;0.63;0.50;;;7.70;76.10;;;;;;5404239;26;20072;-63
2024/04/17 04:41:23;;;;;;;0.80;0.40;;;7.70;76.10;;;;;;5400706;26;20002;-62
2024/04/17 04:43:49;;;;;;;0.68;0.47;;;7.70;76.10;;;;;;5414423;26;20839;-63
2024/04/17 04:46:15;;;;;;;0.93;0.65;;;7.80;76.20;;;;;;5447880;26;19999;-63
2024/04/17 04:48:40;;;;;;;0.60;0.60;;;7.70;76.20;;;;;;5424430;26;20014;-63
2024/04/17 04:51:06;;;;;;;1.00;0.63;;;7.70;76.40;;;;;;5412101;26;20077;-64
2024/04/17 04:53:32;;;;;;;0.50;0.50;;;7.70;76.20;;;;;;5384451;26;19992;-63
2024/04/17 04:55:58;;;;;;;0.95;0.55;;;7.70;76.30;;;;;;5402318;26;20132;-63
2024/04/17 04:58:24;;;;;;;0.50;0.50;;;7.70;76.30;;;;;;5407472;26;20059;-63
2024/04/17 05:00:51;;;;;;;0.60;0.60;;;7.70;76.10;;;;;;5402828;26;19996;-63
2024/04/17 05:03:17;;;;;;;0.45;0.35;;;7.70;76.40;;;;;;5418115;26;20007;-63
2024/04/17 05:05:43;;;;;;;0.88;0.70;;;7.70;76.30;;;;;;5407941;26;20302;-63
2024/04/17 05:08:08;;;;;;;1.52;0.70;;;7.70;76.40;;;;;;5401744;26;20007;-63
2024/04/17 05:10:34;;;;;;;0.50;0.50;;;7.70;76.30;;;;;;5415568;26;20068;-62
2024/04/17 05:13:00;;;;;;;1.33;0.60;;;7.70;76.40;;;;;;5411231;26;20011;-62
2024/04/17 05:15:25;;;;;;;0.70;0.70;;;7.70;76.40;;;;;;5409472;26;19992;-63
2024/04/17 05:17:51;;;;;;;0.60;0.60;;;7.70;76.70;;;;;;5410066;26;20073;-63
2024/04/17 05:20:16;;;;;;;1.60;0.82;;;7.70;76.50;;;;;;5408728;26;20000;-63
2024/04/17 05:22:42;;;;;;;3.28;0.80;;;7.70;76.60;;;;;;5409729;26;20000;-63
2024/04/17 05:25:07;;;;;;;0.70;0.70;;;7.70;76.80;;;;;;5410676;26;19996;-63
2024/04/17 05:27:33;;;;;;;5.18;2.97;;;7.70;76.60;;;;;;5428130;26;20005;-64
2024/04/17 05:29:59;;;;;;;2.70;0.90;;;7.70;76.60;;;;;;5407377;26;20000;-63
2024/04/17 05:32:24;;;;;;;0.90;0.90;;;7.70;76.80;;;;;;5404402;26;20352;-62
2024/04/17 05:34:50;;;;;;;1.70;0.80;;;7.80;76.80;;;;;;5411328;26;19996;-63
2024/04/17 05:37:16;;;;;;;3.03;0.85;;;7.70;76.80;;;;;;5412952;26;20018;-62
2024/04/17 05:39:41;;;;;;;0.82;0.82;;;7.80;76.90;;;;;;5411211;26;20560;-63
2024/04/17 05:42:07;;;;;;;0.95;0.90;;;7.80;76.80;;;;;;5421869;26;20007;-63
2024/04/17 05:44:33;;;;;;;2.30;0.88;;;7.80;77.00;;;;;;5418756;26;20008;-63
2024/04/17 05:46:58;;;;;;;1.13;0.88;;;7.70;76.90;;;;;;5406712;26;20336;-63
2024/04/17 05:49:24;;;;;;;0.60;0.60;;;7.80;77.10;;;;;;5410819;26;20071;-63
2024/04/17 05:51:49;;;;;;;1.02;0.80;;;7.80;77.10;;;;;;5422224;26;19995;-62
2024/04/17 05:54:15;;;;;;;2.00;0.70;;;7.70;77.10;;;;;;5423718;26;20003;-63
2024/04/17 05:56:41;;;;;;;0.80;0.80;;;7.80;77.20;;;;;;5422480;26;19996;-62
2024/04/17 05:59:06;;;;;;;1.10;1.10;;;7.80;77.20;;;;;;5407094;26;20128;-62
2024/04/17 06:01:32;;;;;;;0.80;0.80;;;7.80;77.30;;;;;;5412481;26;20512;-63
2024/04/17 06:03:57;;;;;;;1.40;1.30;;;7.80;77.60;;;;;;5412864;26;20447;-63
2024/04/17 06:06:23;;;;;;;3.92;1.10;;;7.80;77.90;;;;;;5409801;26;20067;-63
2024/04/17 06:08:49;;;;;;;2.97;1.30;;;7.80;78.10;;;;;;5410657;26;20004;-63
2024/04/17 06:11:14;;;;;;;1.00;1.00;;;7.80;78.10;;;;;;5408703;26;20062;-62
2024/04/17 06:13:40;;;;;;;1.15;1.15;;;7.80;78.40;;;;;;5422398;26;19999;-62
2024/04/17 06:16:07;;;;;;;1.63;1.27;;;7.80;79.30;;;;;;5408735;26;19999;-62
2024/04/17 06:18:32;;;;;;;1.10;1.00;;;7.80;78.70;;;;;;5419521;26;19998;-62
2024/04/17 06:20:58;;;;;;;0.98;0.98;;;7.80;79.20;;;;;;5414002;26;20015;-61
2024/04/17 06:23:24;;;;;;;2.22;1.13;;;7.80;79.40;;;;;;5402470;26;20007;-60
2024/04/17 06:25:49;;;;;;;1.13;1.02;;;7.80;79.40;;;;;;5410376;26;20006;-60
2024/04/17 06:28:15;;;;;;;1.45;1.13;;;7.80;80.00;;;;;;5411296;26;20023;-62
2024/04/17 06:30:41;;;;;;;0.75;0.65;;;7.80;80.40;;;;;;5404228;26;20524;-61
2024/04/17 06:33:06;;;;;;;0.70;0.70;;;7.70;80.50;;;;;;5417901;26;20007;-61
2024/04/17 06:35:35;;;;;;;1.20;0.70;;;7.70;80.40;;;;;;5418362;26;20010;-61
2024/04/17 06:38:01;;;;;;;0.80;0.55;;;7.60;81.00;;;;;;5410289;26;19996;-62
2024/04/17 06:40:27;;;;;;;0.80;0.80;;;7.60;80.80;;;;;;5403604;26;20455;-62
2024/04/17 06:42:52;;;;;;;2.80;1.30;;;7.50;80.90;;;;;;5413953;26;20000;-62
2024/04/17 06:45:18;;;;;;;4.65;4.10;;;7.40;81.40;;;;;;5400510;26;20006;-61
2024/04/17 06:47:44;;;;;;;6.88;5.13;;;7.30;81.60;;;;;;5409846;26;19991;-61
2024/04/17 06:50:10;;;;;;;3.05;2.78;;;7.30;81.40;;;;;;5410960;26;20007;-61
2024/04/17 06:52:36;;;;;;;7.30;6.50;;;7.20;81.70;;;;;;5411157;26;20004;-61
2024/04/17 06:55:02;;;;;;;5.57;4.75;;;7.10;81.90;;;;;;5415162;26;20507;-62
2024/04/17 06:57:28;;;;;;;2.60;2.40;;;7.00;82.20;;;;;;5414340;26;20365;-62
2024/04/17 06:59:54;;;;;;;3.65;3.35;;;6.90;82.20;;;;;;5409530;26;19992;-62
2024/04/17 07:02:19;;;;;;;1.10;1.00;;;6.90;82.30;;;;;;5410509;26;20002;-62
2024/04/17 07:04:45;;;;;;;0.80;0.80;;;6.80;82.60;;;;;;5412484;26;20467;-62
2024/04/17 07:07:11;;;;;;;1.08;0.93;;;6.70;82.70;;;;;;5415336;26;19995;-62
2024/04/17 07:09:36;;;;;;;0.50;0.50;;;6.70;82.60;;;;;;5388884;26;20008;-60
2024/04/17 07:12:03;;;;;;;1.10;0.73;;;6.60;82.80;;;;;;5400284;26;20023;-61
2024/04/17 07:14:28;;;;;;;0.70;0.70;;;6.60;82.50;;;;;;5400868;26;20000;-61
2024/04/17 07:16:54;;;;;;;0.60;0.40;;;6.50;82.70;;;;;;5409788;26;20007;-61
2024/04/17 07:19:24;;;;;;;0.20;0.20;;;6.50;83.00;;;;;;5425209;26;20007;-61
2024/04/17 07:21:50;;;;;;;0.10;0.10;;;6.50;82.80;;;;;;5419327;26;20009;-62
2024/04/17 07:24:16;;;;;;;0.28;0.10;;;6.40;82.80;;;;;;5426836;26;20000;-62
2024/04/17 07:26:41;;;;;;;0.50;0.20;;;6.30;82.90;;;;;;5409030;26;20343;-59
2024/04/17 07:29:07;;;;;;;0.75;0.40;;;6.30;82.60;;;;;;5405224;26;20022;-60
2024/04/17 07:31:32;;;;;;;0.50;0.20;;;6.20;82.80;;;;;;5406871;26;20325;-61
2024/04/17 07:33:58;;;;;;;0.43;0.30;;;6.20;83.40;;;;;;5417125;26;20000;-61
2024/04/17 07:36:24;;;;;;;0.60;0.40;;;6.20;83.20;;;;;;5430999;26;20447;-61
2024/04/17 07:38:50;;;;;;;0.30;0.30;;;6.20;83.50;;;;;;5409301;26;19995;-59
2024/04/17 07:41:16;;;;;;;0.20;0.20;;;6.20;83.90;;;;;;5413248;26;20789;-59
2024/04/17 07:43:42;;;;;;;0.30;0.30;;;6.20;83.90;;;;;;5413394;26;19995;-61
2024/04/17 07:46:07;;;;;;;0.28;0.28;;;6.20;83.70;;;;;;5407895;26;21331;-61
2024/04/17 07:48:33;;;;;;;0.10;0.10;;;6.30;83.70;;;;;;5411142;26;20331;-60
2024/04/17 07:50:59;;;;;;;0.63;0.40;;;6.30;83.80;;;;;;5405994;26;20006;-60
2024/04/17 07:53:24;;;;;;;0.50;0.40;;;6.30;83.60;;;;;;5420069;26;20482;-60
2024/04/17 07:55:50;;;;;;;0.20;0.13;;;6.30;83.70;;;;;;5420185;26;20413;-60
2024/04/17 07:58:16;;;;;;;0.57;0.40;;;6.30;83.70;;;;;;5408817;26;20022;-62
2024/04/17 08:00:41;;;;;;;0.20;0.20;;;6.30;83.40;;;;;;5403502;26;19999;-60
2024/04/17 08:03:08;;;;;;;0.30;0.20;;;6.30;83.60;;;;;;5394426;26;20010;-60
2024/04/17 08:05:33;;;;;;;0.10;0.10;;;6.30;83.50;;;;;;5409733;26;20107;-60
2024/04/17 08:07:59;;;;;;;0.10;0.10;;;6.40;84.20;;;;;;5417406;26;20007;-60
2024/04/17 08:10:24;;;;;;;0.20;0.20;;;6.30;83.70;;;;;;5423812;26;20009;-59
2024/04/17 08:12:53;;;;;;;0.20;0.20;;;6.40;84.20;;;;;;5406698;26;20064;-59
2024/04/17 08:15:21;;;;;;;0.50;0.40;;;6.40;84.40;;;;;;5405866;26;20000;-59
2024/04/17 08:17:47;;;;;;;0.40;0.30;;;6.40;84.10;;;;;;5412467;26;20070;-60
2024/04/17 08:20:12;;;;;;;1.15;0.30;;;6.50;84.30;;;;;;5418162;26;20458;-60
2024/04/17 08:22:38;;;;;;;0.57;0.40;;;6.60;84.60;;;;;;5398351;26;20004;-60
2024/04/17 08:25:04;;;;;;;0.40;0.40;;;6.60;84.40;;;;;;5419154;26;20041;-59
2024/04/17 08:27:30;;;;;;;0.20;0.10;;;6.70;84.40;;;;;;5406612;26;20008;-61
2024/04/17 08:29:56;;;;;;;0.50;0.20;;;6.70;84.60;;;;;;5409168;26;19996;-60
2024/04/17 08:32:21;;;;;;;0.90;0.70;;;6.80;84.10;;;;;;5378988;26;20003;-59
2024/04/17 08:34:47;;;;;;;0.60;0.30;;;6.90;84.30;;;;;;5420449;26;19991;-61
2024/04/17 08:37:12;;;;;;;0.88;0.30;;;6.90;84.40;;;;;;5405100;26;20485;-61
2024/04/17 08:39:38;;;;;;;0.30;0.30;;;7.00;83.80;;;;;;5398642;26;20011;-61
2024/04/17 08:42:06;;;;;;;0.68;0.30;;;7.00;84.00;;;;;;5411554;26;20002;-61
2024/04/17 08:44:39;;;;;;;0.57;0.50;;;7.10;84.20;;;;;;5407795;26;20378;-60
2024/04/17 08:47:05;;;;;;;0.45;0.45;;;7.20;84.10;;;;;;5415518;26;20007;-60
2024/04/17 08:49:33;;;;;;;0.70;0.70;;;7.20;83.30;;;;;;5415453;26;20011;-57
2024/04/17 08:52:02;;;;;;;0.80;0.80;;;7.20;82.70;;;;;;5405879;26;20002;-59
2024/04/17 08:54:32;;;;;;;1.20;1.13;;;7.30;82.60;;;;;;5408211;26;20050;-61
2024/04/17 08:56:58;;;;;;;1.50;1.40;;;7.30;82.60;;;;;;5408908;26;19995;-60
2024/04/17 08:59:23;;;;;;;1.85;1.70;;;7.30;82.60;;;;;;5412226;26;19996;-59
2024/04/17 09:01:49;;;;;;;2.00;1.80;;;7.30;82.60;;;;;;5404884;26;19999;-60
2024/04/17 09:04:17;;;;;;;2.25;2.05;;;7.40;82.90;;;;;;5422687;26;20011;-61
2024/04/17 09:06:43;;;;;;;1.50;1.40;;;7.50;83.30;;;;;;5408617;26;20096;-60
2024/04/17 09:09:12;;;;;;;1.42;1.33;;;7.50;83.00;;;;;;5410052;26;20021;-61
2024/04/17 09:11:40;;;;;;;1.63;1.52;;;7.60;82.90;;;;;;5406787;26;20430;-60
2024/04/17 09:14:05;;;;;;;2.45;2.25;;;7.70;83.30;;;;;;5413497;26;20024;-59
2024/04/17 09:16:31;;;;;;;2.33;2.13;;;7.80;82.90;;;;;;5420071;26;20010;-60
2024/04/17 09:18:57;;;;;;;2.30;2.10;;;7.80;82.40;;;;;;5410857;26;20002;-61
2024/04/17 09:21:22;;;;;;;2.00;1.90;;;7.90;82.40;;;;;;5410149;26;20455;-60
2024/04/17 09:23:48;;;;;;;2.40;2.20;;;7.90;82.00;;;;;;5406245;26;20007;-60
2024/04/17 09:26:15;;;;;;;2.13;2.03;;;7.90;82.00;;;;;;5417060;26;19996;-61
2024/04/17 09:28:40;;;;;;;2.60;2.40;;;7.90;82.70;;;;;;5409636;26;20463;-62
2024/04/17 09:31:06;;;;;;;2.00;1.90;;;8.00;82.90;;;;;;5414000;26;20003;-61
2024/04/17 09:33:32;;;;;;;1.80;1.70;;;8.00;82.70;;;;;;5419332;26;20089;-62
2024/04/17 09:36:04;;;;;;;1.80;1.50;;;8.10;82.60;;;;;;5409918;26;20004;-61
2024/04/17 09:38:31;;;;;;;1.77;1.67;;;8.10;82.70;;;;;;5413546;26;20368;-61
2024/04/17 09:40:57;;;;;;;1.95;1.48;;;8.20;82.90;;;;;;5407259;26;20005;-62
2024/04/17 09:43:26;;;;;;;1.52;1.42;;;8.20;82.80;;;;;;5415891;26;20725;-60
2024/04/17 09:45:59;;;;;;;1.75;1.65;;;8.30;82.00;;;;;;5402380;26;20349;-60
2024/04/17 09:48:26;;;;;;;1.98;1.77;;;8.30;81.50;;;;;;5403380;26;20003;-62
2024/04/17 09:51:03;;;;;;;2.15;1.95;;;8.30;81.20;;;;;;5423688;26;20479;-61
2024/04/17 09:53:35;;;;;;;2.10;2.00;;;8.30;81.20;;;;;;5410205;26;19991;-61
2024/04/17 09:56:02;;;;;;;2.85;2.60;;;8.30;80.70;;;;;;5414083;26;20003;-60
2024/04/17 09:58:32;;;;;;;3.20;2.72;;;8.30;80.60;;;;;;5416252;26;20039;-60
2024/04/17 10:01:08;;;;;;;3.00;2.70;;;8.20;80.60;;;;;;5411395;26;20463;-60
2024/04/17 10:03:39;;;;;;;5.00;3.22;;;8.20;81.30;;;;;;5389377;26;19995;-60
2024/04/17 10:06:05;;;;;;;3.08;2.80;;;8.20;81.50;;;;;;5410723;26;20010;-62
2024/04/17 10:08:32;;;;;;;3.13;2.67;;;8.20;81.50;;;;;;5412360;26;20621;-61
2024/04/17 10:10:59;;;;;;;2.63;2.42;;;8.20;81.40;;;;;;5424171;26;20535;-60
2024/04/17 10:13:25;;;;;;;2.83;2.63;;;8.20;81.50;;;;;;5417536;26;20091;-60
2024/04/17 10:15:52;;;;;;;3.65;2.50;;;8.20;82.00;;;;;;5404675;26;20066;-61
2024/04/17 10:18:18;;;;;;;3.15;2.42;;;8.10;82.30;;;;;;5411403;26;19995;-61
2024/04/17 10:20:44;;;;;;;2.72;2.53;;;8.10;82.80;;;;;;5412259;26;20762;-61
2024/04/17 10:23:13;;;;;;;3.65;2.88;;;8.00;82.40;;;;;;5415276;26;20011;-61
2024/04/17 10:25:53;;;;;;;3.15;2.85;;;8.00;82.40;;;;;;5409751;26;20000;-60
2024/04/17 10:28:20;;;;;;;3.25;2.95;;;7.90;82.30;;;;;;5404857;26;20339;-60
2024/04/17 10:30:50;;;;;;;4.07;3.00;;;7.90;82.40;;;;;;5412817;26;20451;-62
2024/04/17 10:33:26;;;;;;;3.17;2.88;;;7.80;82.20;;;;;;5413491;26;20340;-61
2024/04/17 10:35:52;;;;;;;3.70;2.63;;;7.90;83.10;;;;;;5426386;26;20006;-61
2024/04/17 10:38:18;;;;;;;3.25;2.95;;;7.80;83.50;;;;;;5414269;26;19995;-61
2024/04/17 10:40:45;;;;;;;3.17;2.55;;;7.80;84.00;;;;;;5409918;26;20076;-61
2024/04/17 10:43:13;;;;;;;2.70;2.50;;;7.90;84.10;;;;;;5418545;26;20003;-61
2024/04/17 10:45:45;;;;;;;2.55;2.35;;;7.80;83.50;;;;;;5408952;26;20128;-62
2024/04/17 10:48:17;;;;;;;2.05;1.95;;;7.90;83.60;;;;;;5411264;26;19992;-62
2024/04/17 10:50:43;;;;;;;2.33;2.13;;;7.80;83.10;;;;;;5407892;26;20035;-62
2024/04/17 10:53:10;;;;;;;2.40;2.20;;;7.90;82.80;;;;;;5410635;26;20002;-61
2024/04/17 10:55:36;;;;;;;2.10;1.65;;;7.80;83.50;;;;;;5414969;26;20359;-61
2024/04/17 10:58:02;;;;;;;2.03;1.63;;;7.90;84.50;;;;;;5416025;26;20014;-60
2024/04/17 11:00:29;;;;;;;1.80;1.70;;;7.90;84.10;;;;;;5422572;26;20378;-61
2024/04/17 11:02:54;;;;;;;1.27;1.17;;;7.90;84.30;;;;;;5418584;26;20420;-61
2024/04/17 11:05:24;;;;;;;1.23;1.02;;;7.90;83.90;;;;;;5408122;26;20008;-62
2024/04/17 11:07:49;;;;;;;0.88;0.88;;;7.90;83.80;;;;;;5415721;26;19992;-61
2024/04/17 11:10:16;;;;;;;1.20;1.10;;;8.00;83.80;;;;;;5416206;26;20027;-61
2024/04/17 11:12:41;;;;;;;1.33;1.02;;;8.00;84.10;;;;;;5415831;26;20004;-62
2024/04/17 11:15:07;;;;;;;0.60;0.50;;;8.00;84.30;;;;;;5403409;26;20430;-61
2024/04/17 11:17:33;;;;;;;1.00;0.80;;;8.00;84.10;;;;;;5407618;26;20003;-60
2024/04/17 11:19:58;;;;;;;0.50;0.50;;;8.00;83.80;;;;;;5410106;26;19995;-62
2024/04/17 11:22:24;;;;;;;0.70;0.70;;;8.00;84.60;;;;;;5415973;26;19992;-62
2024/04/17 11:24:53;;;;;;;0.63;0.60;;;8.10;85.20;;;;;;5421470;26;20036;-62
2024/04/17 11:27:19;;;;;;;1.00;0.82;;;8.00;85.30;;;;;;5406637;26;20724;-61
2024/04/17 11:29:45;;;;;;;1.30;1.20;;;8.20;85.20;;;;;;5407388;26;19995;-61
2024/04/17 11:32:11;;;;;;;1.50;1.10;;;8.20;84.80;;;;;;5416023;26;20010;-61
2024/04/17 11:34:36;;;;;;;0.80;0.80;;;8.20;84.50;;;;;;5418550;26;20462;-62
2024/04/17 11:37:06;;;;;;;1.38;1.27;;;8.30;84.30;;;;;;5420761;26;20014;-61
2024/04/17 11:39:32;;;;;;;1.35;1.25;;;8.30;84.40;;;;;;5398271;26;20175;-62
2024/04/17 11:42:01;;;;;;;1.17;0.90;;;8.30;84.80;;;;;;5411484;26;20015;-61
2024/04/17 11:44:28;;;;;;;1.70;1.60;;;8.40;84.70;;;;;;5403923;26;20023;-61
2024/04/17 11:46:54;;;;;;;2.47;2.28;;;8.40;85.00;;;;;;5427973;26;19995;-62
2024/04/17 11:49:20;;;;;;;2.55;2.35;;;8.40;84.80;;;;;;5415361;26;20014;-62
2024/04/17 11:51:45;;;;;;;2.35;2.15;;;8.40;84.80;;;;;;5410029;26;20443;-60
2024/04/17 11:54:11;;;;;;;2.05;1.85;;;8.40;84.60;;;;;;5412503;26;20014;-61
2024/04/17 11:56:37;;;;;;;2.08;1.83;;;8.40;83.60;;;;;;5415964;26;20028;-61
2024/04/17 11:59:03;;;;;;;1.65;1.55;;;8.30;83.80;;;;;;5402071;26;20011;-61
2024/04/17 12:01:28;;;;;;;1.45;1.35;;;8.30;83.80;;;;;;5403318;26;20447;-61
2024/04/17 12:03:54;;;;;;;1.00;1.00;;;8.20;84.10;;;;;;5392399;26;21220;-61
2024/04/17 12:06:20;;;;;;;0.60;0.60;;;8.20;83.40;;;;;;5405139;26;20597;-60
2024/04/17 12:08:46;;;;;;;1.67;0.50;;;8.20;83.80;;;;;;5413828;26;20011;-62
2024/04/17 12:11:12;;;;;;;0.30;0.30;;;8.10;84.50;;;;;;5427463;26;20487;-62
2024/04/17 12:13:37;;;;;;;0.20;0.20;;;8.00;82.70;;;;;;5417622;26;20342;-60
2024/04/17 12:16:04;;;;;;;0.45;0.30;;;8.00;82.60;;;;;;5409518;26;20043;-62
2024/04/17 12:18:30;;;;;;;0.60;0.40;;;8.00;83.60;;;;;;5405120;26;20384;-61
2024/04/17 12:20:56;;;;;;;2.45;1.40;;;8.00;83.20;;;;;;5411907;26;19999;-62
2024/04/17 12:23:21;;;;;;;1.98;1.00;;;7.90;83.70;;;;;;5428330;26;20414;-60
2024/04/17 12:28:33;;;;;;;3.65;1.80;;;8.00;83.70;;;;;;5417191;26;20072;-60
2024/04/17 12:31:00;;;;;;;6.20;2.88;;;8.10;85.00;;;;;;5436927;26;20005;-60
2024/04/17 12:33:26;;;;;;;3.38;2.20;;;8.10;85.20;;;;;;5399588;26;20006;-61
2024/04/17 12:35:52;;;;;;;1.98;1.45;;;8.20;85.70;;;;;;5411164;26;20003;-61
2024/04/17 12:38:18;;;;;;;1.52;1.42;;;8.30;85.50;;;;;;5413712;26;19996;-61
2024/04/17 12:40:43;;;;;;;1.40;1.30;;;8.30;85.20;;;;;;5423117;26;20004;-62
2024/04/17 12:43:09;;;;;;;2.45;1.60;;;8.40;85.80;;;;;;5402671;26;20000;-61
2024/04/17 12:45:35;;;;;;;1.40;1.30;;;8.50;85.30;;;;;;5412529;26;20358;-62
2024/04/17 12:48:01;;;;;;;2.22;1.80;;;8.50;84.50;;;;;;5412871;26;20425;-60
2024/04/17 12:50:27;;;;;;;2.00;1.70;;;8.60;84.00;;;;;;5418397;26;20431;-61
2024/04/17 12:52:53;;;;;;;1.95;1.80;;;8.60;83.80;;;;;;5399034;26;19996;-62
2024/04/17 12:55:18;;;;;;;1.50;1.40;;;8.70;83.10;;;;;;5429749;26;20608;-62